Time;durP1;ratioP1;P1;durP2;ratioP2;P2;SDS_P1;SDS_P2;PMS_P1;PMS_P2;Temp;Humidity;BMP_temperature;BMP_pressure;BME280_temperature;BME280_humidity;BME280_pressure;Samples;Min_cycle;Max_cycle;Signal;HPM_P1;HPM_P2
2021/05/07 00:00:34;;;;;;;2.13;2.03;;;7.80;93.20;;;;;;5044302;28;20074;-74
2021/05/07 00:02:59;;;;;;;2.03;1.92;;;7.70;93.20;;;;;;5046921;28;20408;-73
2021/05/07 00:05:25;;;;;;;1.98;1.88;;;7.70;93.30;;;;;;5044960;28;20025;-73
2021/05/07 00:07:50;;;;;;;1.75;1.55;;;7.70;93.30;;;;;;5048414;28;20048;-74
2021/05/07 00:10:38;;;;;;;2.35;2.15;;;7.70;93.20;;;;;;5046243;28;20028;-74
2021/05/07 00:13:03;;;;;;;2.13;1.92;;;7.70;93.30;;;;;;5027831;28;20036;-73
2021/05/07 00:15:29;;;;;;;2.05;1.90;;;7.70;93.30;;;;;;5047810;28;20032;-74
2021/05/07 00:17:54;;;;;;;2.20;2.00;;;7.60;93.30;;;;;;5048832;28;20111;-74
2021/05/07 00:20:20;;;;;;;1.73;1.63;;;7.60;93.30;;;;;;5047448;28;20072;-73
2021/05/07 00:22:45;;;;;;;2.08;1.98;;;7.60;93.30;;;;;;5032198;28;20103;-72
2021/05/07 00:25:11;;;;;;;1.85;1.75;;;7.60;93.20;;;;;;5048437;28;20028;-74
2021/05/07 00:27:37;;;;;;;1.98;1.88;;;7.60;93.20;;;;;;5030353;28;20028;-73
2021/05/07 00:30:03;;;;;;;1.92;1.83;;;7.50;93.20;;;;;;5045708;28;20459;-72
2021/05/07 00:32:29;;;;;;;1.75;1.65;;;7.50;93.20;;;;;;5048923;28;20385;-74
2021/05/07 00:34:54;;;;;;;2.33;2.00;;;7.50;93.20;;;;;;5044376;28;20037;-73
2021/05/07 00:37:20;;;;;;;2.10;2.00;;;7.50;93.20;;;;;;5046493;28;20025;-73
2021/05/07 00:39:45;;;;;;;2.13;2.03;;;7.50;93.20;;;;;;5046304;28;20118;-75
2021/05/07 00:42:12;;;;;;;2.30;2.10;;;7.50;93.30;;;;;;5049558;28;20040;-74
2021/05/07 00:44:37;;;;;;;2.00;1.90;;;7.50;93.20;;;;;;5046638;28;20117;-74
2021/05/07 00:47:06;;;;;;;1.83;1.73;;;7.40;93.20;;;;;;5047153;28;20604;-73
2021/05/07 00:49:33;;;;;;;2.30;2.10;;;7.40;93.30;;;;;;5047806;28;20124;-74
2021/05/07 00:52:01;;;;;;;2.20;2.00;;;7.40;93.30;;;;;;5036359;28;20496;-73
2021/05/07 00:54:28;;;;;;;4.15;2.13;;;7.40;93.30;;;;;;5040760;28;20256;-73
2021/05/07 00:56:53;;;;;;;1.80;1.70;;;7.40;93.30;;;;;;5044432;28;20100;-73
2021/05/07 00:59:19;;;;;;;2.42;2.22;;;7.40;93.40;;;;;;5029605;28;20112;-73
2021/05/07 01:01:45;;;;;;;2.28;2.08;;;7.40;93.30;;;;;;5048487;28;20531;-73
2021/05/07 01:04:10;;;;;;;3.20;2.35;;;7.40;93.40;;;;;;5046653;28;20041;-74
2021/05/07 01:06:36;;;;;;;2.47;2.28;;;7.40;93.30;;;;;;5047752;28;20040;-74
2021/05/07 01:09:02;;;;;;;2.28;2.17;;;7.40;93.30;;;;;;5048971;28;20111;-73
2021/05/07 01:11:28;;;;;;;1.90;1.80;;;7.40;93.30;;;;;;5040511;28;20104;-72
2021/05/07 01:13:54;;;;;;;2.85;2.30;;;7.30;93.30;;;;;;5029837;28;20107;-73
2021/05/07 01:16:19;;;;;;;3.30;2.53;;;7.30;93.30;;;;;;5047861;28;20463;-73
2021/05/07 01:18:45;;;;;;;2.83;2.63;;;7.30;93.40;;;;;;5049872;28;20230;-73
2021/05/07 01:21:10;;;;;;;3.33;2.72;;;7.30;93.30;;;;;;5027157;28;20078;-72
2021/05/07 01:23:36;;;;;;;2.50;2.30;;;7.30;93.30;;;;;;5047450;28;20163;-73
2021/05/07 01:26:01;;;;;;;2.63;2.42;;;7.30;93.40;;;;;;5029368;28;20025;-73
2021/05/07 01:28:28;;;;;;;2.85;2.30;;;7.20;93.30;;;;;;5043510;28;20037;-73
2021/05/07 01:30:54;;;;;;;2.92;2.63;;;7.20;93.40;;;;;;5044258;28;20036;-72
2021/05/07 01:33:19;;;;;;;3.10;2.80;;;7.20;93.40;;;;;;5026274;28;20083;-73
2021/05/07 01:35:46;;;;;;;2.58;2.22;;;7.20;93.40;;;;;;5046241;28;20033;-73
2021/05/07 01:38:15;;;;;;;2.95;2.67;;;7.10;93.30;;;;;;5026298;28;20457;-74
2021/05/07 01:40:46;;;;;;;3.10;2.80;;;7.10;93.40;;;;;;5048235;28;20029;-72
2021/05/07 01:43:12;;;;;;;3.35;3.05;;;7.10;93.40;;;;;;5030546;28;20021;-73
2021/05/07 01:45:40;;;;;;;3.58;3.15;;;7.00;93.40;;;;;;5047010;28;20037;-72
2021/05/07 01:48:07;;;;;;;3.63;3.15;;;7.00;93.50;;;;;;5029315;28;20519;-71
2021/05/07 01:50:35;;;;;;;3.50;3.20;;;7.00;93.50;;;;;;5045451;28;20121;-73
2021/05/07 01:53:00;;;;;;;3.42;3.13;;;7.00;93.50;;;;;;5040649;28;20508;-71
2021/05/07 01:55:35;;;;;;;3.10;2.75;;;7.00;93.50;;;;;;5047790;28;20033;-72
2021/05/07 01:58:02;;;;;;;3.15;2.85;;;7.00;93.50;;;;;;5045924;28;20128;-72
2021/05/07 02:00:29;;;;;;;3.45;3.15;;;7.00;93.50;;;;;;5046549;28;20135;-72
2021/05/07 02:02:56;;;;;;;3.40;3.10;;;6.90;93.50;;;;;;5044506;28;20033;-72
2021/05/07 02:05:23;;;;;;;3.30;3.00;;;6.90;93.50;;;;;;5019889;28;20112;-73
2021/05/07 02:07:49;;;;;;;3.33;3.03;;;6.90;93.50;;;;;;5044534;28;20086;-72
2021/05/07 02:10:24;;;;;;;3.50;3.20;;;6.90;93.50;;;;;;5029629;28;20500;-73
2021/05/07 02:12:50;;;;;;;3.70;3.35;;;6.80;93.50;;;;;;5047790;28;20055;-73
2021/05/07 02:15:24;;;;;;;3.60;3.30;;;6.80;93.60;;;;;;5048263;28;20033;-72
2021/05/07 02:17:50;;;;;;;3.88;3.50;;;6.80;93.60;;;;;;5048904;28;20099;-73
2021/05/07 02:20:19;;;;;;;4.38;3.67;;;6.80;93.60;;;;;;5029093;28;20048;-73
2021/05/07 02:22:48;;;;;;;3.80;3.40;;;6.80;93.60;;;;;;5045369;28;20051;-73
2021/05/07 02:25:20;;;;;;;5.03;3.35;;;6.80;93.50;;;;;;5048633;28;20542;-72
2021/05/07 02:27:46;;;;;;;5.22;4.72;;;6.80;93.60;;;;;;5048148;28;20076;-73
2021/05/07 02:30:14;;;;;;;4.10;3.70;;;6.80;93.70;;;;;;5050171;28;20039;-74
2021/05/07 02:32:40;;;;;;;5.57;3.70;;;6.70;93.60;;;;;;5051872;28;20032;-73
2021/05/07 02:35:06;;;;;;;4.35;3.95;;;6.70;93.60;;;;;;5042871;28;20037;-72
2021/05/07 02:37:33;;;;;;;4.10;3.70;;;6.70;93.70;;;;;;5048137;28;20028;-73
2021/05/07 02:39:59;;;;;;;4.70;4.15;;;6.70;93.70;;;;;;5047121;28;20029;-71
2021/05/07 02:42:25;;;;;;;4.30;3.90;;;6.70;93.80;;;;;;5050241;28;20025;-73
2021/05/07 02:44:50;;;;;;;4.30;3.80;;;6.70;93.80;;;;;;5045238;28;20112;-73
2021/05/07 02:47:16;;;;;;;5.00;4.15;;;6.70;93.80;;;;;;5050329;28;20509;-73
2021/05/07 02:49:42;;;;;;;4.55;3.97;;;6.70;93.80;;;;;;5050439;28;20071;-73
2021/05/07 02:52:08;;;;;;;4.20;3.75;;;6.70;93.80;;;;;;5049201;28;20025;-73
2021/05/07 02:54:34;;;;;;;4.30;3.90;;;6.70;93.80;;;;;;5042761;28;20513;-73
2021/05/07 02:57:00;;;;;;;4.85;4.35;;;6.70;93.80;;;;;;5049487;28;20052;-73
2021/05/07 02:59:26;;;;;;;6.50;4.00;;;6.70;93.80;;;;;;5046711;28;20024;-73
2021/05/07 03:01:52;;;;;;;5.63;4.18;;;6.70;93.80;;;;;;5048751;28;20044;-73
2021/05/07 03:04:18;;;;;;;4.50;4.10;;;6.70;93.80;;;;;;5047640;28;20507;-73
2021/05/07 03:06:45;;;;;;;5.90;4.20;;;6.70;93.80;;;;;;5049290;28;20033;-73
2021/05/07 03:09:11;;;;;;;4.35;3.92;;;6.60;93.80;;;;;;5030785;28;20029;-72
2021/05/07 03:11:36;;;;;;;4.88;4.38;;;6.60;93.80;;;;;;5047173;28;20090;-73
2021/05/07 03:14:02;;;;;;;4.97;4.28;;;6.60;93.70;;;;;;5048079;28;20096;-73
2021/05/07 03:16:27;;;;;;;6.35;4.32;;;6.60;93.80;;;;;;5050148;28;20111;-72
2021/05/07 03:18:53;;;;;;;6.05;4.65;;;6.60;93.80;;;;;;5032025;28;20020;-73
2021/05/07 03:21:19;;;;;;;5.55;4.85;;;6.60;93.80;;;;;;5050267;28;20031;-73
2021/05/07 03:23:44;;;;;;;5.60;4.57;;;6.60;93.90;;;;;;5050789;28;20040;-73
2021/05/07 03:26:10;;;;;;;5.55;4.85;;;6.60;93.90;;;;;;5044860;28;20107;-71
2021/05/07 03:28:39;;;;;;;6.00;5.15;;;6.60;93.90;;;;;;5049742;28;20029;-72
2021/05/07 03:31:05;;;;;;;6.53;5.20;;;6.60;93.90;;;;;;5030801;28;20511;-72
2021/05/07 03:33:30;;;;;;;6.13;5.07;;;6.60;93.90;;;;;;5049482;28;20021;-72
2021/05/07 03:35:56;;;;;;;7.10;5.28;;;6.60;93.90;;;;;;5094250;22;20480;-70
2021/05/07 03:38:21;;;;;;;6.53;4.97;;;6.60;94.00;;;;;;5060920;28;20097;-70
2021/05/07 03:40:47;;;;;;;6.20;4.93;;;6.50;93.80;;;;;;5073122;28;20107;-70
2021/05/07 03:43:13;;;;;;;5.40;4.75;;;6.50;93.80;;;;;;5089939;28;20422;-70
2021/05/07 03:45:38;;;;;;;7.95;5.50;;;6.50;93.90;;;;;;5071615;28;20043;-70
2021/05/07 03:48:21;;;;;;;5.85;4.97;;;6.50;93.80;;;;;;5090532;28;20020;-70
2021/05/07 03:50:48;;;;;;;6.95;5.40;;;6.50;93.80;;;;;;5085370;28;20117;-71
2021/05/07 03:53:15;;;;;;;6.68;5.18;;;6.50;93.90;;;;;;5089939;28;20024;-70
2021/05/07 03:55:42;;;;;;;7.40;5.70;;;6.40;93.90;;;;;;5063667;28;20081;-71
2021/05/07 03:58:08;;;;;;;6.75;4.75;;;6.40;93.90;;;;;;5067431;28;20032;-71
2021/05/07 04:00:34;;;;;;;6.15;4.85;;;6.40;94.20;;;;;;5086681;28;20114;-71
2021/05/07 04:03:01;;;;;;;6.32;5.18;;;6.40;93.90;;;;;;5085820;28;20411;-70
2021/05/07 04:05:26;;;;;;;7.15;5.13;;;6.40;93.90;;;;;;5087389;28;20135;-71
2021/05/07 04:10:24;;;;;;;4.88;4.38;;;6.40;93.90;;;;;;5088436;28;20082;-70
2021/05/07 04:15:16;;;;;;;5.00;4.22;;;6.40;94.00;;;;;;5102709;28;20136;-71
2021/05/07 04:17:43;;;;;;;5.05;4.47;;;6.40;94.00;;;;;;5088963;28;20024;-71
2021/05/07 04:20:09;;;;;;;6.10;4.75;;;6.40;93.90;;;;;;5089082;28;20091;-71
2021/05/07 04:22:37;;;;;;;7.03;4.35;;;6.40;93.90;;;;;;5090766;28;20025;-70
2021/05/07 04:25:04;;;;;;;4.57;3.85;;;6.40;93.90;;;;;;5089442;28;20024;-70
2021/05/07 04:27:30;;;;;;;6.32;3.90;;;6.40;93.90;;;;;;5085231;28;21929;-70
2021/05/07 04:29:55;;;;;;;5.53;4.13;;;6.40;93.90;;;;;;5071494;28;20080;-71
2021/05/07 04:32:21;;;;;;;5.82;4.30;;;6.40;94.00;;;;;;5089459;28;20036;-71
2021/05/07 04:34:47;;;;;;;5.47;4.45;;;6.40;94.00;;;;;;5068245;28;20055;-71
2021/05/07 04:37:12;;;;;;;4.50;3.58;;;6.40;94.00;;;;;;5085295;28;20016;-71
2021/05/07 04:39:38;;;;;;;5.40;4.05;;;6.40;94.00;;;;;;5070934;28;20033;-70
2021/05/07 04:42:04;;;;;;;4.50;3.65;;;6.40;94.00;;;;;;5084170;28;20028;-71
2021/05/07 04:44:29;;;;;;;6.05;4.00;;;6.40;94.00;;;;;;5087856;28;20375;-70
2021/05/07 04:46:55;;;;;;;5.53;3.70;;;6.40;94.10;;;;;;5089987;28;20032;-70
2021/05/07 04:49:21;;;;;;;5.90;3.67;;;6.50;94.10;;;;;;5071061;28;20122;-71
2021/05/07 04:51:46;;;;;;;4.93;3.95;;;6.50;94.00;;;;;;5081188;28;20039;-71
2021/05/07 04:54:12;;;;;;;4.60;3.55;;;6.50;94.10;;;;;;5077382;28;20051;-71
2021/05/07 04:56:37;;;;;;;4.00;3.60;;;6.50;93.90;;;;;;5069541;28;20060;-71
2021/05/07 04:59:03;;;;;;;4.07;3.67;;;6.40;93.80;;;;;;5084430;28;20048;-71
2021/05/07 05:01:29;;;;;;;4.30;3.40;;;6.40;93.90;;;;;;5084275;28;20028;-71
2021/05/07 05:03:54;;;;;;;3.85;3.55;;;6.40;94.10;;;;;;5083893;28;20035;-71
2021/05/07 05:06:20;;;;;;;4.97;3.55;;;6.40;93.90;;;;;;5070965;28;20028;-71
2021/05/07 05:08:45;;;;;;;5.75;4.47;;;6.40;93.90;;;;;;5089923;28;20024;-70
2021/05/07 05:11:11;;;;;;;5.15;3.72;;;6.40;93.90;;;;;;5090596;28;20036;-71
2021/05/07 05:13:37;;;;;;;5.45;4.13;;;6.40;93.90;;;;;;5063265;28;20024;-70
2021/05/07 05:16:03;;;;;;;6.45;4.47;;;6.40;93.90;;;;;;5087999;28;20426;-70
2021/05/07 05:18:38;;;;;;;6.40;4.43;;;6.40;93.80;;;;;;5087011;28;20072;-71
2021/05/07 05:21:05;;;;;;;5.60;4.35;;;6.40;93.80;;;;;;5083686;28;20434;-69
2021/05/07 05:23:31;;;;;;;8.00;4.20;;;6.50;93.80;;;;;;5081933;28;20024;-67
2021/05/07 05:25:58;;;;;;;5.97;4.80;;;6.40;93.80;;;;;;5087535;28;20028;-69
2021/05/07 05:28:24;;;;;;;9.63;4.95;;;6.40;93.90;;;;;;5066703;28;20425;-70
2021/05/07 05:30:50;;;;;;;8.43;6.30;;;6.40;94.00;;;;;;5089089;28;20035;-70
2021/05/07 05:33:16;;;;;;;7.82;5.18;;;6.50;94.10;;;;;;5085404;28;20016;-70
2021/05/07 05:35:42;;;;;;;8.93;5.68;;;6.50;94.00;;;;;;5083902;28;20093;-70
2021/05/07 05:38:07;;;;;;;8.38;5.50;;;6.50;93.90;;;;;;5090539;28;20016;-69
2021/05/07 05:40:33;;;;;;;7.57;5.28;;;6.50;94.00;;;;;;5088712;28;20028;-71
2021/05/07 05:42:59;;;;;;;8.45;5.82;;;6.50;94.00;;;;;;5066199;28;20086;-70
2021/05/07 05:45:25;;;;;;;9.95;6.15;;;6.50;94.00;;;;;;5077161;28;20076;-70
2021/05/07 05:48:05;;;;;;;7.85;5.65;;;6.50;93.90;;;;;;5073806;28;20031;-69
2021/05/07 05:50:31;;;;;;;8.80;6.68;;;6.50;94.00;;;;;;5081932;28;20024;-69
2021/05/07 05:52:57;;;;;;;8.57;5.88;;;6.50;94.00;;;;;;5081043;28;20025;-71
2021/05/07 05:55:23;;;;;;;8.45;6.10;;;6.50;93.90;;;;;;5066538;28;20432;-70
2021/05/07 05:57:49;;;;;;;9.18;6.38;;;6.50;93.90;;;;;;5091386;28;20423;-70
2021/05/07 06:00:15;;;;;;;9.88;7.40;;;6.60;94.00;;;;;;5065127;28;20484;-70
2021/05/07 06:02:41;;;;;;;8.10;6.80;;;6.50;93.90;;;;;;5083052;28;20368;-70
2021/05/07 06:05:08;;;;;;;12.95;6.80;;;6.60;93.90;;;;;;5065058;28;20024;-69
2021/05/07 06:07:34;;;;;;;9.77;6.82;;;6.60;94.00;;;;;;5087541;28;20059;-70
2021/05/07 06:10:00;;;;;;;10.57;7.00;;;6.50;93.90;;;;;;5090124;28;20117;-70
2021/05/07 06:12:25;;;;;;;13.40;6.90;;;6.60;94.00;;;;;;5070848;28;20035;-69
2021/05/07 06:14:51;;;;;;;8.07;6.85;;;6.60;94.00;;;;;;5088163;28;20098;-69
2021/05/07 06:17:16;;;;;;;9.50;7.03;;;6.60;93.90;;;;;;5086376;28;20020;-69
2021/05/07 06:19:42;;;;;;;8.38;6.63;;;6.50;94.00;;;;;;5089136;28;20024;-69
2021/05/07 06:22:07;;;;;;;9.20;6.38;;;6.60;94.00;;;;;;5088643;28;20060;-69
2021/05/07 06:24:33;;;;;;;9.38;6.53;;;6.60;94.00;;;;;;5086063;28;20029;-68
2021/05/07 06:26:59;;;;;;;8.82;6.70;;;6.60;94.00;;;;;;5089226;28;20032;-68
2021/05/07 06:29:25;;;;;;;9.40;7.00;;;6.60;94.00;;;;;;5081561;28;20535;-69
2021/05/07 06:31:51;;;;;;;9.63;7.13;;;6.70;94.10;;;;;;5093756;28;20045;-68
2021/05/07 06:34:17;;;;;;;9.07;6.95;;;6.70;94.10;;;;;;5088316;28;20388;-69
2021/05/07 06:36:42;;;;;;;8.50;7.15;;;6.70;94.10;;;;;;5087810;28;22132;-69
2021/05/07 06:39:08;;;;;;;7.53;6.50;;;6.80;94.10;;;;;;5087912;28;20024;-70
2021/05/07 06:41:33;;;;;;;9.00;6.82;;;6.80;94.10;;;;;;5086410;28;20059;-70
2021/05/07 06:43:59;;;;;;;8.90;7.00;;;6.90;94.10;;;;;;5077885;28;20086;-70
2021/05/07 06:46:25;;;;;;;9.18;6.80;;;6.80;94.00;;;;;;5086966;28;20468;-69
2021/05/07 06:48:50;;;;;;;9.15;6.65;;;6.90;93.90;;;;;;5072227;28;20024;-70
2021/05/07 06:51:16;;;;;;;8.57;6.85;;;6.90;93.90;;;;;;5070156;28;20032;-70
2021/05/07 06:53:42;;;;;;;13.43;7.78;;;6.90;94.00;;;;;;5084239;28;20036;-69
2021/05/07 06:56:09;;;;;;;10.88;7.18;;;6.90;94.00;;;;;;5068533;28;20024;-70
2021/05/07 06:58:36;;;;;;;8.48;6.90;;;7.00;93.90;;;;;;5087708;28;20028;-70
2021/05/07 07:01:02;;;;;;;9.27;7.18;;;7.00;93.80;;;;;;5070866;28;20219;-69
2021/05/07 07:03:28;;;;;;;7.63;6.60;;;6.90;93.70;;;;;;5057054;28;20119;-70
2021/05/07 07:05:53;;;;;;;8.93;7.57;;;7.00;93.80;;;;;;5092311;28;20046;-70
2021/05/07 07:08:19;;;;;;;8.77;6.80;;;7.00;93.80;;;;;;5092762;28;20108;-70
2021/05/07 07:10:44;;;;;;;9.02;6.70;;;7.00;93.90;;;;;;5074832;28;20073;-70
2021/05/07 07:13:10;;;;;;;8.63;6.90;;;7.10;93.80;;;;;;5069666;28;20162;-70
2021/05/07 07:15:36;;;;;;;7.50;6.30;;;7.10;93.80;;;;;;5077521;28;20066;-70
2021/05/07 07:18:01;;;;;;;8.63;6.45;;;7.10;93.80;;;;;;5083812;28;20066;-70
2021/05/07 07:20:30;;;;;;;8.73;6.68;;;7.10;93.70;;;;;;5084911;28;20024;-70
2021/05/07 07:22:58;;;;;;;9.52;6.75;;;7.20;93.80;;;;;;5074657;28;20047;-69
2021/05/07 07:25:23;;;;;;;13.25;7.93;;;7.30;93.70;;;;;;5063817;28;20114;-70
2021/05/07 07:27:49;;;;;;;7.65;6.88;;;7.30;93.80;;;;;;5079326;28;20058;-69
2021/05/07 07:30:15;;;;;;;8.35;6.47;;;7.30;93.70;;;;;;5089835;28;20016;-70
2021/05/07 07:32:41;;;;;;;8.25;6.63;;;7.40;93.70;;;;;;5074343;28;20077;-70
2021/05/07 07:35:08;;;;;;;9.63;6.95;;;7.40;93.80;;;;;;5091450;28;20021;-70
2021/05/07 07:37:34;;;;;;;8.25;6.38;;;7.40;93.70;;;;;;5073553;28;20151;-71
2021/05/07 07:40:00;;;;;;;6.88;6.15;;;7.40;93.70;;;;;;5069407;28;20133;-69
2021/05/07 07:42:25;;;;;;;9.00;7.00;;;7.40;93.50;;;;;;5086975;28;20024;-70
2021/05/07 07:44:51;;;;;;;7.85;6.00;;;7.40;93.60;;;;;;5083976;28;20040;-69
2021/05/07 07:47:17;;;;;;;8.70;6.38;;;7.30;93.60;;;;;;5072037;28;20032;-69
2021/05/07 07:49:42;;;;;;;8.85;6.05;;;7.30;93.60;;;;;;5091950;28;20035;-71
2021/05/07 07:52:09;;;;;;;7.57;6.35;;;7.30;93.60;;;;;;5092658;28;20028;-70
2021/05/07 07:54:35;;;;;;;9.38;6.25;;;7.40;93.60;;;;;;5088498;28;20012;-70
2021/05/07 07:57:00;;;;;;;7.97;6.30;;;7.30;93.50;;;;;;5091925;28;20077;-70
2021/05/07 07:59:26;;;;;;;7.45;6.00;;;7.30;93.40;;;;;;5091634;28;20496;-69
2021/05/07 08:01:51;;;;;;;7.50;6.20;;;7.40;93.50;;;;;;5091232;28;20111;-70
2021/05/07 08:04:17;;;;;;;6.57;5.90;;;7.40;93.50;;;;;;5086763;28;20603;-69
2021/05/07 08:06:46;;;;;;;7.97;6.18;;;7.30;93.20;;;;;;5091356;28;20032;-70
2021/05/07 08:09:13;;;;;;;7.63;5.70;;;7.30;93.20;;;;;;5091521;28;20039;-69
2021/05/07 08:11:39;;;;;;;7.18;5.97;;;7.40;93.30;;;;;;5085452;28;20035;-69
2021/05/07 08:14:04;;;;;;;7.90;6.05;;;7.40;93.30;;;;;;5088240;28;20077;-69
2021/05/07 08:16:30;;;;;;;8.25;6.00;;;7.50;93.30;;;;;;5087816;28;20024;-70
2021/05/07 08:18:56;;;;;;;8.80;6.40;;;7.60;93.40;;;;;;5091707;28;20051;-70
2021/05/07 08:21:24;;;;;;;9.32;6.20;;;7.60;93.40;;;;;;5093496;28;20020;-70
2021/05/07 08:23:50;;;;;;;10.10;6.60;;;7.70;93.40;;;;;;5102076;28;20547;-70
2021/05/07 08:26:15;;;;;;;8.43;6.30;;;7.70;93.70;;;;;;5090168;28;20103;-71
2021/05/07 08:28:41;;;;;;;8.55;6.93;;;7.80;93.50;;;;;;5084350;28;20038;-70
2021/05/07 08:31:08;;;;;;;7.65;6.63;;;7.80;93.50;;;;;;5078473;28;20085;-70
2021/05/07 08:33:33;;;;;;;8.35;7.38;;;7.90;93.70;;;;;;5090383;28;20028;-70
2021/05/07 08:35:59;;;;;;;6.88;6.18;;;7.90;93.30;;;;;;5089681;28;20034;-70
2021/05/07 08:38:24;;;;;;;9.23;6.97;;;7.90;93.20;;;;;;5089584;28;20048;-70
2021/05/07 08:40:50;;;;;;;12.88;8.65;;;7.90;93.20;;;;;;5090465;28;20036;-70
2021/05/07 08:43:16;;;;;;;8.50;6.35;;;7.90;93.10;;;;;;5072755;28;20127;-70
2021/05/07 08:45:42;;;;;;;8.60;7.15;;;8.00;93.10;;;;;;5084055;28;20016;-70
2021/05/07 08:48:09;;;;;;;9.70;7.05;;;8.00;92.90;;;;;;5084273;28;20530;-71
2021/05/07 08:50:35;;;;;;;7.57;6.00;;;8.10;92.80;;;;;;5079555;28;20608;-70
2021/05/07 08:53:01;;;;;;;10.80;6.68;;;8.10;92.70;;;;;;5089159;28;20111;-70
2021/05/07 08:55:27;;;;;;;7.55;5.15;;;9.90;91.60;;;;;;5085678;28;20031;-70
2021/05/07 08:57:52;;;;;;;5.88;5.18;;;9.80;91.40;;;;;;5087206;28;20096;-69
2021/05/07 09:00:18;;;;;;;6.38;5.45;;;10.90;90.60;;;;;;5089087;28;20028;-69
2021/05/07 09:02:44;;;;;;;8.48;5.57;;;10.90;90.70;;;;;;5088535;28;20774;-68
2021/05/07 09:05:11;;;;;;;8.05;6.10;;;10.70;90.70;;;;;;5088302;28;20107;-69
2021/05/07 09:07:36;;;;;;;11.45;7.10;;;10.30;90.80;;;;;;5089626;28;20565;-68
2021/05/07 09:10:04;;;;;;;6.45;5.68;;;10.00;91.00;;;;;;5082983;28;20028;-69
2021/05/07 09:12:29;;;;;;;10.90;8.02;;;9.80;91.20;;;;;;5093798;28;20051;-69
2021/05/07 09:14:55;;;;;;;6.40;5.72;;;10.60;90.80;;;;;;5110912;28;20027;-70
2021/05/07 09:17:23;;;;;;;6.35;4.40;;;10.90;90.40;;;;;;5091008;28;20028;-69
2021/05/07 09:19:49;;;;;;;7.05;6.35;;;11.70;89.60;;;;;;5072902;28;20028;-69
2021/05/07 09:22:27;;;;;;;7.25;5.43;;;11.60;89.70;;;;;;5087729;28;20024;-69
2021/05/07 09:25:25;;;;;;;9.38;4.63;;;11.20;88.80;;;;;;5084080;28;20031;-69
2021/05/07 09:27:50;;;;;;;6.40;5.07;;;10.80;89.40;;;;;;5038207;28;20067;-69
2021/05/07 09:30:28;;;;;;;5.30;4.80;;;10.60;90.00;;;;;;5069865;28;20050;-69
2021/05/07 09:32:55;;;;;;;5.88;5.00;;;10.30;89.00;;;;;;5086245;28;20024;-69
2021/05/07 09:35:26;;;;;;;7.35;5.65;;;10.10;89.40;;;;;;5149704;22;20105;-70
2021/05/07 09:38:00;;;;;;;8.98;5.32;;;9.90;88.70;;;;;;5063011;28;20480;-70
2021/05/07 09:40:26;;;;;;;7.63;5.20;;;9.60;88.70;;;;;;5062133;28;20025;-71
2021/05/07 09:43:03;;;;;;;5.20;4.70;;;10.70;88.50;;;;;;5070756;28;20059;-70
2021/05/07 09:45:29;;;;;;;5.88;4.72;;;11.20;88.90;;;;;;5070242;28;20058;-70
2021/05/07 09:47:55;;;;;;;5.45;4.20;;;12.70;87.50;;;;;;5068395;28;20056;-70
2021/05/07 09:50:40;;;;;;;5.22;4.25;;;13.80;86.50;;;;;;5052380;28;20085;-70
2021/05/07 09:53:13;;;;;;;5.43;4.22;;;14.10;85.30;;;;;;5070040;28;20024;-70
2021/05/07 09:55:39;;;;;;;4.78;4.00;;;14.60;81.70;;;;;;5062406;28;20024;-70
2021/05/07 09:58:05;;;;;;;7.78;4.07;;;14.40;80.90;;;;;;5069595;28;20533;-70
2021/05/07 10:00:31;;;;;;;4.47;4.07;;;14.50;81.20;;;;;;5070248;28;20103;-70
2021/05/07 10:02:57;;;;;;;6.18;4.07;;;14.00;81.00;;;;;;5067949;28;20024;-70
2021/05/07 10:05:32;;;;;;;3.92;3.58;;;14.20;80.40;;;;;;5066733;28;20077;-70
2021/05/07 10:07:58;;;;;;;5.05;3.50;;;14.30;80.40;;;;;;5047469;28;20059;-70
2021/05/07 10:11:18;;;;;;;4.72;3.63;;;14.60;79.30;;;;;;5069146;28;20044;-69
2021/05/07 10:13:47;;;;;;;4.05;3.20;;;14.30;78.20;;;;;;5066189;28;20033;-71
2021/05/07 10:16:13;;;;;;;3.55;3.25;;;14.40;79.90;;;;;;5069360;28;20029;-71
2021/05/07 10:18:41;;;;;;;4.25;3.83;;;14.20;79.80;;;;;;5069614;28;20046;-70
2021/05/07 10:21:13;;;;;;;3.88;3.58;;;13.80;77.90;;;;;;5070225;28;20178;-71
2021/05/07 10:23:50;;;;;;;3.78;2.92;;;13.30;76.60;;;;;;5068768;28;20511;-71
2021/05/07 10:26:16;;;;;;;3.63;3.10;;;13.00;75.00;;;;;;5061413;28;20043;-71
2021/05/07 10:28:49;;;;;;;3.20;2.97;;;13.00;76.50;;;;;;5069750;28;20033;-71
2021/05/07 10:31:16;;;;;;;5.45;2.70;;;13.10;75.70;;;;;;5073614;28;20120;-71
2021/05/07 10:33:43;;;;;;;3.13;2.83;;;13.30;75.40;;;;;;5068819;28;20040;-70
2021/05/07 10:36:09;;;;;;;3.38;2.58;;;13.40;74.30;;;;;;5070674;28;20492;-70
2021/05/07 10:38:35;;;;;;;3.63;2.88;;;13.50;75.10;;;;;;5071979;28;20032;-70
2021/05/07 10:41:04;;;;;;;4.07;2.70;;;13.90;75.10;;;;;;5072586;28;20031;-70
2021/05/07 10:43:39;;;;;;;3.10;2.55;;;14.10;74.00;;;;;;5073777;28;20028;-71
2021/05/07 10:46:05;;;;;;;4.75;2.70;;;14.40;73.00;;;;;;5072147;28;20091;-71
2021/05/07 10:48:31;;;;;;;2.83;2.60;;;14.50;72.10;;;;;;5073048;28;20082;-71
2021/05/07 10:51:02;;;;;;;2.83;2.63;;;14.60;71.90;;;;;;5072927;28;20495;-71
2021/05/07 10:53:34;;;;;;;2.75;2.40;;;14.70;71.60;;;;;;5073528;28;20055;-71
2021/05/07 10:56:13;;;;;;;3.65;2.72;;;14.70;69.90;;;;;;5073045;28;20019;-71
2021/05/07 10:58:38;;;;;;;2.83;2.55;;;14.70;70.40;;;;;;5073351;28;20039;-71
2021/05/07 11:01:17;;;;;;;4.72;3.10;;;14.80;70.30;;;;;;5072996;28;20028;-71
2021/05/07 11:03:44;;;;;;;3.92;2.88;;;14.60;67.70;;;;;;5070165;28;20028;-69
2021/05/07 11:06:17;;;;;;;3.47;2.80;;;14.50;68.40;;;;;;5067652;28;20029;-69
2021/05/07 11:08:43;;;;;;;3.70;2.70;;;14.30;68.20;;;;;;5070859;28;20090;-69
2021/05/07 11:11:08;;;;;;;3.25;2.45;;;14.10;68.30;;;;;;5072807;28;20480;-69
2021/05/07 11:13:37;;;;;;;2.92;2.45;;;13.90;67.50;;;;;;5071914;28;20107;-69
2021/05/07 11:16:03;;;;;;;2.90;2.47;;;13.80;67.50;;;;;;5071714;28;20709;-69
2021/05/07 11:18:33;;;;;;;2.50;2.30;;;13.70;67.80;;;;;;5072850;28;20044;-69
2021/05/07 11:21:11;;;;;;;2.30;2.10;;;13.80;68.20;;;;;;5072985;28;20016;-69
2021/05/07 11:23:37;;;;;;;3.67;2.25;;;14.00;67.10;;;;;;5071848;28;20023;-69
2021/05/07 11:26:07;;;;;;;3.47;2.20;;;14.00;68.20;;;;;;5071121;28;20025;-70
2021/05/07 11:28:43;;;;;;;3.20;2.40;;;14.10;67.50;;;;;;5071030;28;20016;-70
2021/05/07 11:31:09;;;;;;;3.00;2.70;;;14.10;66.10;;;;;;5053380;28;20021;-70
2021/05/07 11:33:35;;;;;;;4.32;2.90;;;14.20;67.40;;;;;;5072737;28;20066;-70
2021/05/07 11:36:09;;;;;;;3.05;2.75;;;14.20;66.90;;;;;;5070250;28;20115;-70
2021/05/07 11:38:36;;;;;;;3.83;2.85;;;14.10;65.60;;;;;;5071576;28;20107;-70
2021/05/07 11:41:01;;;;;;;3.90;2.40;;;14.10;65.50;;;;;;5072396;28;20024;-71
2021/05/07 11:43:28;;;;;;;2.60;2.08;;;14.00;65.40;;;;;;5071146;28;20104;-70
2021/05/07 11:46:07;;;;;;;3.15;2.17;;;14.00;66.00;;;;;;5070909;28;20373;-70
2021/05/07 11:48:37;;;;;;;3.05;2.05;;;14.00;65.10;;;;;;5070397;28;20016;-70
2021/05/07 11:51:07;;;;;;;3.75;1.92;;;14.10;65.70;;;;;;5050493;28;20024;-70
2021/05/07 11:53:37;;;;;;;2.28;2.13;;;14.20;65.00;;;;;;5072386;28;20016;-70
2021/05/07 11:56:04;;;;;;;2.25;2.05;;;14.20;64.60;;;;;;5071605;28;20028;-70
2021/05/07 11:58:36;;;;;;;4.63;2.03;;;14.30;64.60;;;;;;5071009;28;20024;-70
2021/05/07 12:01:06;;;;;;;2.63;2.42;;;14.20;64.00;;;;;;5071896;28;20396;-71
2021/05/07 12:03:41;;;;;;;2.95;2.03;;;14.20;63.50;;;;;;5069399;28;20376;-70
2021/05/07 12:06:42;;;;;;;3.05;2.03;;;14.20;63.00;;;;;;5066864;28;20307;-70
2021/05/07 12:09:09;;;;;;;2.33;2.10;;;14.00;63.00;;;;;;5064262;28;20028;-70
2021/05/07 12:11:35;;;;;;;2.55;2.05;;;13.90;63.60;;;;;;5066049;28;20025;-70
2021/05/07 12:14:12;;;;;;;2.55;2.10;;;13.90;64.20;;;;;;5071103;28;20020;-70
2021/05/07 12:16:38;;;;;;;2.03;1.80;;;13.90;62.50;;;;;;5070739;28;20028;-70
2021/05/07 12:19:04;;;;;;;2.95;2.20;;;13.80;62.50;;;;;;5071480;28;20634;-70
2021/05/07 12:21:43;;;;;;;3.90;2.80;;;13.60;61.80;;;;;;5071307;28;20108;-70
2021/05/07 12:24:13;;;;;;;2.83;2.05;;;13.60;61.40;;;;;;5069424;28;20032;-70
2021/05/07 12:26:50;;;;;;;3.03;2.20;;;13.60;62.40;;;;;;5071593;28;20484;-70
2021/05/07 12:29:16;;;;;;;7.10;2.55;;;13.50;62.00;;;;;;5069798;28;20044;-70
2021/05/07 12:31:42;;;;;;;2.30;2.10;;;13.30;63.00;;;;;;5070526;28;20396;-70
2021/05/07 12:34:16;;;;;;;3.55;2.35;;;13.20;63.00;;;;;;5052787;28;20031;-71
2021/05/07 12:36:43;;;;;;;3.30;2.47;;;13.00;62.90;;;;;;5070826;28;20028;-70
2021/05/07 12:39:11;;;;;;;2.20;2.00;;;12.90;63.20;;;;;;5068145;28;20124;-70
2021/05/07 12:41:37;;;;;;;2.65;2.00;;;12.70;62.60;;;;;;5070214;28;20038;-70
2021/05/07 12:44:03;;;;;;;5.00;2.42;;;12.50;61.70;;;;;;5052505;28;20027;-70
2021/05/07 12:46:29;;;;;;;3.47;2.35;;;12.20;62.00;;;;;;5053605;28;20028;-70
2021/05/07 12:48:56;;;;;;;2.63;2.38;;;11.90;63.10;;;;;;5070964;28;20017;-70
2021/05/07 12:51:23;;;;;;;2.78;2.05;;;11.80;63.70;;;;;;5070627;28;20067;-70
2021/05/07 12:53:50;;;;;;;4.40;2.40;;;11.70;64.00;;;;;;5070632;28;20095;-70
2021/05/07 12:56:17;;;;;;;4.10;2.80;;;11.70;64.10;;;;;;5070895;28;20068;-72
2021/05/07 12:58:44;;;;;;;5.32;2.65;;;11.60;64.10;;;;;;5069297;28;20013;-69